Terminal Aerodrome Forecast
Issued by NWS

Home | Current Version | Previous Version | Text Only | Print | Product List | Glossary On
Versions: 1 2 3 4 5 6 7 8 9 10 11 12 13 14 15 16 17
000
FTUS41 KGYX 171720
TAFPSM
TAF
KPSM 171720Z 1718/1818 16006KT P6SM SCT100 BKN250
     FM180000 VRB03KT P6SM SCT100 BKN250
     FM181200 29006KT P6SM SCT250=

USA.gov is the U.S. government's official web portal to all federal, state and local government web resources and services.